Ellsworth, Ohio
Current Conditions -  °F | °C
As of 5:51 AM on Friday 31 Oct 2014 (Local Time) from KYNG Reporting Station
Overcast Overcast  
Wind Chill: 39°   Ceiling: 4800
Heat Index: 43°   Visibility: 10mi
Dew Point: 37°   Wind: 6mph
Humidity: 80%   Direction: 150°SSE
Pressure: 29.96"   Gusts: NA
Location:  41.02°N, 80.86°W
Report Text: KYNG 310951Z 15005KT 10SM FEW030 OVC048 06/03 A2996 RMK AO2 SLP150 T00610028 $
Loading
Personal Weather Stations






























Interactive Weather Map
Tropical Storm Tracking
New forecast layout! Learn more

10-Day Weather Forecast

Advertisements
Track Severe Weather on mobile